createdAt,value
2017-07-03T00:00:24.573Z,75.43
2017-07-03T00:00:50.664Z,75.14
2017-07-03T00:01:16.798Z,75.52
2017-07-03T00:01:42.898Z,75.14
2017-07-03T00:02:09.036Z,75.33
2017-07-03T00:02:35.189Z,75.43
2017-07-03T00:03:01.348Z,75.23
2017-07-03T00:03:27.495Z,75.71
2017-07-03T00:03:53.593Z,75.71
2017-07-03T00:04:19.682Z,75.33
2017-07-03T00:04:45.817Z,75.23
2017-07-03T00:05:11.914Z,75.33
2017-07-03T00:05:38.028Z,75.33
2017-07-03T00:06:04.131Z,75.43
2017-07-03T00:06:30.265Z,75.81
2017-07-03T00:06:56.381Z,76
2017-07-03T00:07:22.500Z,76.19
2017-07-03T00:07:48.607Z,76.48
2017-07-03T00:08:14.748Z,76.1
2017-07-03T00:08:40.893Z,75.62
2017-07-03T00:09:07.018Z,75.71
2017-07-03T00:09:33.176Z,75.71
2017-07-03T00:09:59.308Z,76.19
2017-07-03T00:10:25.426Z,76.39
2017-07-03T00:10:51.548Z,76.19
2017-07-03T00:11:17.681Z,75.62
2017-07-03T00:11:43.822Z,75.33
2017-07-03T00:12:09.965Z,75.43
2017-07-03T00:12:36.128Z,75.14
2017-07-03T00:13:02.244Z,75.14
2017-07-03T00:13:28.383Z,75.33
2017-07-03T00:13:54.596Z,75.52
2017-07-03T00:14:20.694Z,75.71
2017-07-03T00:14:46.823Z,75.71
2017-07-03T00:15:12.913Z,75.14
2017-07-03T00:15:39.033Z,75.33
2017-07-03T00:16:05.193Z,75.52
2017-07-03T00:16:31.309Z,75.62
2017-07-03T00:16:57.402Z,75.52
2017-07-03T00:17:23.507Z,75.52
2017-07-03T00:17:49.627Z,75.14
2017-07-03T00:18:15.718Z,75.43
2017-07-03T00:18:41.850Z,75.23
2017-07-03T00:19:08.007Z,75.62
2017-07-03T00:19:34.117Z,74.95
2017-07-03T00:20:00.221Z,75.23
2017-07-03T00:20:26.361Z,75.14
2017-07-03T00:20:52.496Z,75.23
2017-07-03T00:21:18.620Z,74.95
2017-07-03T00:21:44.709Z,75.33
2017-07-03T00:22:10.815Z,75.14
2017-07-03T00:22:36.942Z,74.76
2017-07-03T00:23:03.055Z,74.95
2017-07-03T00:23:29.213Z,75.23
2017-07-03T00:23:55.320Z,75.33
2017-07-03T00:24:21.457Z,75.52
2017-07-03T00:24:47.611Z,75.23
2017-07-03T00:25:13.746Z,75.62
2017-07-03T00:25:39.908Z,75.62
2017-07-03T00:26:06.039Z,75.33
2017-07-03T00:26:32.152Z,75.43
2017-07-03T00:26:58.359Z,75.23
2017-07-03T00:27:24.492Z,75.33
2017-07-03T00:27:50.603Z,75.43
2017-07-03T00:28:16.728Z,75.43
2017-07-03T00:28:42.860Z,75.14
2017-07-03T00:29:09.056Z,75.33
2017-07-03T00:29:35.219Z,75.23
2017-07-03T00:30:01.353Z,75.62
2017-07-03T00:30:27.472Z,75.43
2017-07-03T00:30:53.587Z,75.52
2017-07-03T00:31:19.718Z,75.52
2017-07-03T00:31:45.843Z,75.43
2017-07-03T00:32:11.978Z,75.33
2017-07-03T00:32:38.090Z,76.39
2017-07-03T00:33:04.186Z,76.29
2017-07-03T00:33:30.309Z,75.9
2017-07-03T00:33:56.413Z,75.71
2017-07-03T00:34:22.523Z,76.39
2017-07-03T00:34:48.687Z,76.19
2017-07-03T00:35:14.839Z,76.48
2017-07-03T00:35:40.930Z,76.86
2017-07-03T00:36:07.091Z,76.57
2017-07-03T00:36:33.217Z,76.57
2017-07-03T00:36:59.317Z,76.48
2017-07-03T00:37:25.436Z,77.06
2017-07-03T00:37:51.598Z,76.86
2017-07-03T00:38:17.790Z,76.67
2017-07-03T00:38:43.939Z,76.86
2017-07-03T00:39:10.056Z,76.92
2017-07-03T00:39:36.214Z,76.64
2017-07-03T00:40:02.340Z,77.15
2017-07-03T00:40:28.432Z,76.92
2017-07-03T00:40:54.561Z,77.11
2017-07-03T00:41:20.694Z,76.77
2017-07-03T00:41:46.782Z,76.48
2017-07-03T00:42:12.882Z,76.29
2017-07-03T00:42:39.016Z,76.86
2017-07-03T00:43:05.155Z,76.73
2017-07-03T00:43:31.300Z,76.48
2017-07-03T00:43:57.493Z,77.11
2017-07-03T00:44:23.587Z,77.02
2017-07-03T00:44:49.702Z,77.25
2017-07-03T00:45:15.836Z,77.02
2017-07-03T00:45:41.959Z,77.15
2017-07-03T00:46:08.075Z,77.4
2017-07-03T00:46:34.208Z,77.11
2017-07-03T00:47:00.336Z,77.25
2017-07-03T00:47:26.426Z,77.59
2017-07-03T00:47:52.527Z,77.15
2017-07-03T00:48:18.617Z,77.44
2017-07-03T00:48:44.778Z,77.25
2017-07-03T00:49:10.874Z,77.02
2017-07-03T00:49:37.012Z,77.34
2017-07-03T00:50:03.145Z,77.31
2017-07-03T00:50:29.298Z,77.21
2017-07-03T00:50:55.387Z,76.25
2017-07-03T00:51:21.488Z,76.54
2017-07-03T00:51:47.593Z,76.82
2017-07-03T00:52:13.679Z,76.86
2017-07-03T00:52:39.829Z,77.11
2017-07-03T00:53:05.989Z,76.82
2017-07-03T00:53:32.106Z,77.02
2017-07-03T00:53:58.288Z,77.21
2017-07-03T00:54:24.404Z,77.69
2017-07-03T00:54:50.587Z,78.17
2017-07-03T00:55:16.694Z,77.59
2017-07-03T00:55:42.781Z,77.4
2017-07-03T00:56:08.878Z,76.92
2017-07-03T00:56:34.984Z,77.69
2017-07-03T00:57:01.120Z,77.4
2017-07-03T00:57:27.265Z,77.21
2017-07-03T00:57:53.452Z,76.82
2017-07-03T00:58:19.570Z,77.69
2017-07-03T00:58:45.708Z,77.11
2017-07-03T00:59:11.839Z,77.59
2017-07-03T00:59:37.938Z,77.4
2017-07-03T01:00:04.042Z,77.97
2017-07-03T01:00:30.132Z,77.59
2017-07-03T01:00:56.280Z,77.78
2017-07-03T01:01:22.385Z,77.78
2017-07-03T01:01:48.482Z,78.07
2017-07-03T01:02:14.572Z,77.97
2017-07-03T01:02:40.679Z,77.88
2017-07-03T01:03:06.775Z,78.07
2017-07-03T01:03:32.964Z,78.07
2017-07-03T01:03:59.120Z,78.07
2017-07-03T01:04:25.220Z,78.27
2017-07-03T01:04:51.320Z,77.69
2017-07-03T01:05:17.413Z,77.97
2017-07-03T01:05:43.554Z,77.97
2017-07-03T01:06:09.685Z,77.5
2017-07-03T01:06:35.780Z,77.59
2017-07-03T01:07:01.893Z,77.31
2017-07-03T01:07:28.029Z,77.5
2017-07-03T01:07:54.149Z,77.5
2017-07-03T01:08:20.312Z,77.78
2017-07-03T01:08:46.439Z,77.4
2017-07-03T01:09:12.573Z,77.59
2017-07-03T01:09:38.708Z,77.5
2017-07-03T01:10:04.862Z,77.31
2017-07-03T01:10:30.980Z,77.21
2017-07-03T01:10:57.087Z,77.69
2017-07-03T01:11:23.242Z,78.07
2017-07-03T01:11:49.402Z,77.97
2017-07-03T01:12:15.505Z,78.45
2017-07-03T01:12:41.610Z,78.07
2017-07-03T01:13:07.720Z,77.78
2017-07-03T01:13:33.817Z,78.17
2017-07-03T01:13:59.950Z,77.97
2017-07-03T01:14:26.067Z,78.07
2017-07-03T01:14:52.184Z,77.4
2017-07-03T01:15:18.290Z,77.21
2017-07-03T01:15:44.407Z,77.5
2017-07-03T01:16:10.511Z,77.78
2017-07-03T01:16:36.600Z,78.07
2017-07-03T01:17:02.725Z,78.07
2017-07-03T01:17:28.829Z,77.78
2017-07-03T01:17:54.942Z,77.78
2017-07-03T01:18:21.134Z,77.4
2017-07-03T01:18:47.269Z,77.11
2017-07-03T01:19:13.413Z,77.21
2017-07-03T01:19:39.598Z,76.64
2017-07-03T01:20:05.735Z,76.54
2017-07-03T01:20:31.892Z,76.73
2017-07-03T01:20:57.978Z,77.21
2017-07-03T01:21:24.116Z,77.21
2017-07-03T01:21:50.232Z,77.11
2017-07-03T01:22:16.365Z,76.92
2017-07-03T01:22:42.485Z,76.64
2017-07-03T01:23:08.598Z,76.82
2017-07-03T01:23:34.707Z,76.73
2017-07-03T01:24:00.829Z,76.54
2017-07-03T01:24:26.919Z,76.64
2017-07-03T01:24:53.051Z,76.44
2017-07-03T01:25:19.179Z,77.21
2017-07-03T01:25:45.318Z,77.5
2017-07-03T01:26:11.449Z,77.5
2017-07-03T01:26:37.553Z,77.02
2017-07-03T01:27:03.640Z,77.21
2017-07-03T01:27:29.739Z,76.25
2017-07-03T01:27:55.844Z,77.21
2017-07-03T01:28:21.939Z,77.02
2017-07-03T01:28:48.106Z,77.11
2017-07-03T01:29:14.211Z,77.02
2017-07-03T01:29:40.302Z,76.89
2017-07-03T01:30:06.414Z,77.65
2017-07-03T01:30:32.551Z,77.55
2017-07-03T01:30:58.701Z,77.31
2017-07-03T01:31:24.791Z,77.31
2017-07-03T01:31:50.924Z,77.78
2017-07-03T01:32:17.107Z,77.59
2017-07-03T01:32:43.258Z,77.31
2017-07-03T01:33:09.402Z,77.36
2017-07-03T01:33:35.542Z,77.59
2017-07-03T01:34:01.707Z,77.26
2017-07-03T01:34:27.829Z,77.4
2017-07-03T01:34:53.970Z,77.88
2017-07-03T01:35:20.099Z,77.59
2017-07-03T01:35:46.234Z,76.79
2017-07-03T01:36:12.342Z,77.31
2017-07-03T01:36:38.500Z,77.02
2017-07-03T01:37:04.632Z,77.11
2017-07-03T01:37:30.742Z,77.65
2017-07-03T01:37:56.866Z,77.75
2017-07-03T01:38:23.011Z,78.22
2017-07-03T01:38:49.167Z,78.03
2017-07-03T01:39:15.266Z,78.61
2017-07-03T01:39:41.356Z,78.03
2017-07-03T01:40:07.535Z,78.99
2017-07-03T01:40:33.666Z,78.99
2017-07-03T01:40:59.779Z,78.89
2017-07-03T01:41:25.876Z,78.7
2017-07-03T01:41:51.983Z,78.61
2017-07-03T01:42:18.071Z,78.7
2017-07-03T01:42:44.191Z,78.89
2017-07-03T01:43:10.321Z,79.08
2017-07-03T01:43:36.437Z,78.99
2017-07-03T01:44:02.569Z,79.62
2017-07-03T01:44:28.679Z,79.33
2017-07-03T01:44:54.828Z,79.33
2017-07-03T01:45:20.932Z,79.14
2017-07-03T01:45:47.046Z,79.33
2017-07-03T01:46:13.141Z,79.52
2017-07-03T01:46:39.273Z,79.81
2017-07-03T01:47:05.366Z,79.81
2017-07-03T01:47:31.457Z,79.81
2017-07-03T01:47:57.619Z,79.81
2017-07-03T01:48:23.820Z,79.81
2017-07-03T01:48:49.967Z,80.1
2017-07-03T01:49:16.142Z,79.91
2017-07-03T01:49:42.233Z,80.38
2017-07-03T01:50:08.395Z,80.19
2017-07-03T01:50:34.517Z,80.29
2017-07-03T01:51:00.612Z,80
2017-07-03T01:51:26.759Z,80.29
2017-07-03T01:51:52.812Z,80.29
2017-07-03T01:52:18.925Z,79.91
2017-07-03T01:52:45.086Z,80
2017-07-03T01:53:11.238Z,80.19
2017-07-03T01:53:37.403Z,80
2017-07-03T01:54:03.558Z,80.48
2017-07-03T01:54:29.743Z,80.38
2017-07-03T01:54:55.837Z,80.58
2017-07-03T01:55:21.932Z,80.48
2017-07-03T01:55:48.047Z,80.1
2017-07-03T01:56:14.149Z,80.38
2017-07-03T01:56:40.276Z,80.77
2017-07-03T01:57:06.392Z,80.77
2017-07-03T01:57:32.545Z,80.87
2017-07-03T01:57:58.678Z,81.05
2017-07-03T01:58:24.814Z,80.67
2017-07-03T01:58:50.987Z,80.87
2017-07-03T01:59:17.172Z,81.15
2017-07-03T01:59:43.263Z,81.05
2017-07-03T02:00:09.406Z,81.34
2017-07-03T02:00:35.528Z,80.96
2017-07-03T02:01:01.660Z,81.05
2017-07-03T02:01:27.765Z,81.25
2017-07-03T02:01:53.876Z,81.05
2017-07-03T02:02:19.973Z,80.87
2017-07-03T02:02:46.103Z,80.77
2017-07-03T02:03:12.222Z,81.05
2017-07-03T02:03:38.394Z,80.87
2017-07-03T02:04:04.551Z,81.05
2017-07-03T02:04:30.759Z,80.87
2017-07-03T02:04:56.934Z,81.15
2017-07-03T02:05:23.061Z,81.05
2017-07-03T02:05:49.255Z,80.87
2017-07-03T02:06:15.364Z,81.05
2017-07-03T02:06:41.511Z,81.25
2017-07-03T02:07:07.656Z,81.05
2017-07-03T02:07:33.813Z,80.92
2017-07-03T02:08:00.021Z,80.82
2017-07-03T02:08:26.201Z,80.82
2017-07-03T02:08:52.383Z,81.15
2017-07-03T02:09:18.542Z,80.96
2017-07-03T02:09:44.691Z,81.54
2017-07-03T02:10:10.824Z,81.54
2017-07-03T02:10:36.935Z,80.67
2017-07-03T02:11:03.053Z,80.87
2017-07-03T02:11:29.183Z,80.96
2017-07-03T02:11:55.287Z,81.15
2017-07-03T02:12:21.413Z,81.05
2017-07-03T02:12:47.546Z,81.02
2017-07-03T02:13:13.739Z,80.73
2017-07-03T02:13:39.885Z,80.92
2017-07-03T02:14:06.063Z,80.67
2017-07-03T02:14:32.245Z,81.05
2017-07-03T02:14:58.386Z,80.92
2017-07-03T02:15:24.539Z,80.92
2017-07-03T02:15:50.726Z,80.82
2017-07-03T02:16:16.915Z,81.59
2017-07-03T02:16:43.033Z,81.59
2017-07-03T02:17:09.193Z,81.3
2017-07-03T02:17:35.344Z,81.78
2017-07-03T02:18:01.500Z,81.88
2017-07-03T02:18:27.644Z,81.88
2017-07-03T02:18:53.826Z,81.68
2017-07-03T02:19:19.980Z,81.97
2017-07-03T02:19:46.188Z,82.17
2017-07-03T02:20:12.289Z,82.17
2017-07-03T02:20:38.393Z,81.68
2017-07-03T02:21:04.556Z,82.17
2017-07-03T02:21:30.707Z,82.35
2017-07-03T02:21:56.812Z,82.45
2017-07-03T02:22:22.941Z,82.35
2017-07-03T02:22:49.120Z,82.26
2017-07-03T02:23:15.235Z,82.35
2017-07-03T02:23:41.418Z,82.54
2017-07-03T02:24:07.519Z,82.17
2017-07-03T02:24:33.626Z,81.97
2017-07-03T02:24:59.807Z,81.68
2017-07-03T02:25:25.918Z,81.68
2017-07-03T02:25:52.078Z,81.88
2017-07-03T02:26:18.201Z,81.88
2017-07-03T02:26:44.372Z,82.35
2017-07-03T02:27:10.503Z,82.2
2017-07-03T02:27:36.617Z,82.07
2017-07-03T02:28:02.791Z,82.26
2017-07-03T02:28:28.958Z,82.4
2017-07-03T02:28:55.184Z,81.4
2017-07-03T02:29:21.315Z,81.59
2017-07-03T02:29:47.530Z,80.87
2017-07-03T02:30:13.702Z,81.05
2017-07-03T02:30:39.834Z,81.15
2017-07-03T02:31:06.013Z,81.05
2017-07-03T02:31:32.162Z,81.25
2017-07-03T02:31:58.264Z,81.02
2017-07-03T02:32:24.462Z,81.05
2017-07-03T02:32:50.642Z,80.87
2017-07-03T02:33:16.746Z,80.96
2017-07-03T02:33:42.913Z,81.05
2017-07-03T02:34:09.028Z,81.34
2017-07-03T02:34:35.188Z,80.87
2017-07-03T02:35:01.319Z,81.21
2017-07-03T02:35:27.472Z,81.02
2017-07-03T02:35:53.630Z,81.02
2017-07-03T02:36:19.759Z,81.68
2017-07-03T02:36:45.878Z,80.73
2017-07-03T02:37:12.020Z,80.87
2017-07-03T02:37:38.123Z,81.05
2017-07-03T02:38:04.272Z,81.11
2017-07-03T02:38:30.384Z,80.96
2017-07-03T02:38:56.516Z,80.82
2017-07-03T02:39:22.691Z,81.05
2017-07-03T02:39:48.792Z,81.02
2017-07-03T02:40:14.943Z,80.73
2017-07-03T02:40:41.053Z,80.96
2017-07-03T02:41:07.188Z,81.4
2017-07-03T02:41:33.363Z,81.02
2017-07-03T02:41:59.509Z,80.92
2017-07-03T02:42:25.639Z,81.21
2017-07-03T02:42:51.759Z,81.4
2017-07-03T02:43:17.906Z,81.4
2017-07-03T02:43:44.037Z,81.68
2017-07-03T02:44:10.202Z,81.68
2017-07-03T02:44:36.318Z,81.97
2017-07-03T02:45:02.423Z,81.88
2017-07-03T02:45:28.539Z,81.59
2017-07-03T02:45:54.647Z,81.4
2017-07-03T02:46:20.762Z,81.59
2017-07-03T02:46:46.907Z,81.49
2017-07-03T02:47:13.033Z,81.49
2017-07-03T02:47:39.146Z,81.49
2017-07-03T02:48:05.295Z,81.59
2017-07-03T02:48:31.396Z,81.4
2017-07-03T02:48:57.586Z,81.49
2017-07-03T02:49:23.768Z,81.4
2017-07-03T02:49:49.960Z,81.78
2017-07-03T02:50:16.092Z,81.21
2017-07-03T02:50:42.209Z,81.59
2017-07-03T02:51:08.346Z,81.4
2017-07-03T02:51:34.494Z,81.59
2017-07-03T02:52:00.596Z,81.78
2017-07-03T02:52:26.704Z,81.88
2017-07-03T02:52:52.824Z,81.97
2017-07-03T02:53:18.931Z,81.97
2017-07-03T02:53:45.033Z,81.78
2017-07-03T02:54:11.184Z,81.68
2017-07-03T02:54:37.324Z,81.59
2017-07-03T02:55:03.481Z,81.88
2017-07-03T02:55:29.627Z,82.64
2017-07-03T02:55:55.773Z,82.45
2017-07-03T02:56:21.873Z,82.26
2017-07-03T02:56:48.019Z,81.78
2017-07-03T02:57:14.140Z,81.49
2017-07-03T02:57:40.293Z,81.4
2017-07-03T02:58:06.464Z,81.88
2017-07-03T02:58:32.645Z,81.78
2017-07-03T02:58:58.778Z,81.78
2017-07-03T02:59:24.916Z,81.97
2017-07-03T02:59:51.093Z,82.17
2017-07-03T03:00:17.261Z,81.97
2017-07-03T03:00:43.390Z,82.35
2017-07-03T03:01:09.543Z,82.54
2017-07-03T03:01:35.652Z,82.35
2017-07-03T03:02:01.770Z,82.35
2017-07-03T03:02:27.871Z,82.17
2017-07-03T03:02:54.034Z,82.35
2017-07-03T03:03:20.181Z,82.35
2017-07-03T03:03:46.294Z,81.97
2017-07-03T03:04:12.425Z,81.78
2017-07-03T03:04:38.608Z,81.68
2017-07-03T03:05:04.747Z,81.78
2017-07-03T03:05:30.849Z,81.78
2017-07-03T03:05:56.970Z,82.17
2017-07-03T03:06:23.113Z,82.07
2017-07-03T03:06:49.263Z,81.88
2017-07-03T03:07:15.412Z,81.97
2017-07-03T03:07:41.511Z,82.45
2017-07-03T03:08:07.632Z,82.54
2017-07-03T03:08:33.774Z,82.17
2017-07-03T03:08:59.926Z,82.54
2017-07-03T03:09:26.109Z,82.35
2017-07-03T03:09:52.250Z,82.35
2017-07-03T03:10:18.357Z,81.78
2017-07-03T03:10:44.469Z,81.88
2017-07-03T03:11:10.617Z,81.78
2017-07-03T03:11:36.716Z,81.97
2017-07-03T03:12:02.890Z,82.07
2017-07-03T03:12:29.008Z,82.17
2017-07-03T03:12:55.140Z,82.35
2017-07-03T03:13:21.283Z,82.35
2017-07-03T03:13:47.414Z,82.31
2017-07-03T03:14:13.616Z,82.26
2017-07-03T03:14:39.800Z,82.98
2017-07-03T03:15:05.962Z,82.7
2017-07-03T03:15:32.105Z,83.27
2017-07-03T03:15:58.289Z,82.7
2017-07-03T03:16:24.387Z,82.7
2017-07-03T03:16:50.530Z,83.08
2017-07-03T03:17:16.677Z,83.37
2017-07-03T03:17:42.780Z,83.08
2017-07-03T03:18:08.882Z,83.27
2017-07-03T03:18:35.025Z,83.46
2017-07-03T03:19:01.193Z,83.56
2017-07-03T03:19:27.368Z,83.27
2017-07-03T03:19:53.530Z,83.12
2017-07-03T03:20:19.666Z,82.98
2017-07-03T03:20:45.783Z,83.27
2017-07-03T03:21:11.933Z,82.7
2017-07-03T03:21:37.991Z,82.79
2017-07-03T03:22:04.145Z,82.79
2017-07-03T03:22:30.255Z,82.51
2017-07-03T03:22:56.381Z,83.22
2017-07-03T03:23:22.528Z,82.07
2017-07-03T03:23:48.671Z,83.03
2017-07-03T03:24:14.837Z,83.17
2017-07-03T03:24:40.946Z,82.83
2017-07-03T03:25:07.109Z,82.07
2017-07-03T03:25:33.264Z,82.26
2017-07-03T03:25:59.375Z,81.88
2017-07-03T03:26:25.505Z,82.83
2017-07-03T03:26:51.661Z,82.83
2017-07-03T03:27:17.807Z,82.35
2017-07-03T03:27:43.961Z,82.17
2017-07-03T03:28:10.182Z,82.64
2017-07-03T03:28:36.362Z,82.45
2017-07-03T03:29:02.518Z,82.35
2017-07-03T03:29:28.718Z,82.45
2017-07-03T03:29:54.850Z,82.45
2017-07-03T03:30:21.025Z,82.35
2017-07-03T03:30:47.168Z,82.35
2017-07-03T03:31:13.274Z,82.17
2017-07-03T03:31:39.386Z,82.64
2017-07-03T03:32:05.506Z,82.51
2017-07-03T03:32:31.638Z,81.88
2017-07-03T03:32:57.780Z,82.35
2017-07-03T03:33:23.892Z,82.12
2017-07-03T03:33:49.995Z,82.12
2017-07-03T03:34:16.105Z,82.26
2017-07-03T03:34:42.281Z,82.45
2017-07-03T03:35:08.390Z,82.45
2017-07-03T03:35:34.537Z,82.45
2017-07-03T03:36:00.636Z,82.45
2017-07-03T03:36:26.748Z,82.6
2017-07-03T03:36:52.868Z,82.35
2017-07-03T03:37:18.995Z,82.12
2017-07-03T03:37:45.161Z,82.22
2017-07-03T03:38:11.402Z,82.98
2017-07-03T03:38:37.567Z,82.98
2017-07-03T03:39:03.696Z,82.98
2017-07-03T03:39:29.880Z,82.98
2017-07-03T03:39:56.081Z,82.6
2017-07-03T03:40:22.238Z,82.6
2017-07-03T03:40:48.358Z,82.79
2017-07-03T03:41:14.532Z,82.7
2017-07-03T03:41:40.691Z,83.08
2017-07-03T03:42:06.842Z,83.27
2017-07-03T03:42:32.958Z,83.27
2017-07-03T03:42:59.061Z,82.79
2017-07-03T03:43:25.199Z,82.79
2017-07-03T03:43:51.384Z,82.6
2017-07-03T03:44:17.513Z,83.27
2017-07-03T03:44:43.649Z,83.17
2017-07-03T03:45:09.798Z,83.08
2017-07-03T03:45:35.908Z,83.56
2017-07-03T03:46:02.065Z,82.98
2017-07-03T03:46:28.222Z,83.27
2017-07-03T03:46:54.374Z,82.98
2017-07-03T03:47:20.494Z,82.89
2017-07-03T03:47:46.624Z,82.7
2017-07-03T03:48:12.735Z,82.98
2017-07-03T03:48:38.885Z,83.27
2017-07-03T03:49:05.046Z,82.98
2017-07-03T03:49:31.179Z,82.98
2017-07-03T03:49:57.330Z,82.89
2017-07-03T03:50:23.437Z,83.37
2017-07-03T03:50:49.595Z,83.08
2017-07-03T03:51:15.741Z,83.46
2017-07-03T03:51:41.850Z,83.08
2017-07-03T03:52:08.048Z,83.27
2017-07-03T03:52:34.155Z,83.46
2017-07-03T03:53:00.312Z,83.46
2017-07-03T03:53:26.434Z,83.37
2017-07-03T03:53:52.637Z,83.65
2017-07-03T03:54:18.802Z,83.56
2017-07-03T03:54:44.976Z,83.56
2017-07-03T03:55:11.148Z,83.65
2017-07-03T03:55:37.253Z,84.28
2017-07-03T03:56:03.402Z,84.09
2017-07-03T03:56:29.550Z,84.09
2017-07-03T03:56:55.653Z,83.9
2017-07-03T03:57:21.793Z,83.99
2017-07-03T03:57:47.959Z,84.47
2017-07-03T03:58:14.079Z,84.76
2017-07-03T03:58:40.225Z,84.38
2017-07-03T03:59:06.383Z,84.47
2017-07-03T03:59:32.589Z,84.19
2017-07-03T03:59:58.704Z,84.47
2017-07-03T04:00:24.802Z,84.19
2017-07-03T04:00:50.943Z,84.19
2017-07-03T04:01:17.061Z,84.47
2017-07-03T04:01:43.167Z,84.47
2017-07-03T04:02:09.303Z,84.19
2017-07-03T04:02:35.420Z,84.66
2017-07-03T04:03:01.578Z,84.09
2017-07-03T04:03:27.697Z,84.47
2017-07-03T04:03:53.799Z,84.28
2017-07-03T04:04:19.937Z,84.47
2017-07-03T04:04:46.091Z,84.85
2017-07-03T04:05:12.195Z,84.85
2017-07-03T04:05:38.364Z,84.85
2017-07-03T04:06:04.514Z,84.38
2017-07-03T04:06:30.656Z,84.47
2017-07-03T04:06:56.758Z,84.95
2017-07-03T04:07:22.912Z,84.85
2017-07-03T04:07:49.021Z,84.56
2017-07-03T04:08:15.147Z,84.56
2017-07-03T04:08:41.270Z,84.19
2017-07-03T04:09:07.406Z,84.66
2017-07-03T04:09:33.558Z,84.09
2017-07-03T04:09:59.714Z,84.56
2017-07-03T04:10:25.817Z,84.66
2017-07-03T04:10:51.969Z,84.85
2017-07-03T04:11:18.080Z,84.47
2017-07-03T04:11:44.233Z,84.38
2017-07-03T04:12:10.383Z,84.28
2017-07-03T04:12:36.495Z,84.76
2017-07-03T04:13:02.684Z,84.76
2017-07-03T04:13:28.831Z,85.24
2017-07-03T04:13:55.037Z,84.38
2017-07-03T04:14:21.195Z,84.28
2017-07-03T04:14:47.305Z,84.52
2017-07-03T04:15:13.460Z,84.7
2017-07-03T04:15:39.605Z,84.13
2017-07-03T04:16:05.743Z,84.23
2017-07-03T04:16:31.848Z,83.65
2017-07-03T04:16:57.993Z,83.94
2017-07-03T04:17:24.112Z,83.65
2017-07-03T04:17:50.241Z,83.65
2017-07-03T04:18:16.353Z,83.94
2017-07-03T04:18:42.573Z,84.03
2017-07-03T04:19:08.665Z,84.13
2017-07-03T04:19:34.805Z,84.23
2017-07-03T04:20:00.940Z,84.03
2017-07-03T04:20:27.059Z,84.03
2017-07-03T04:20:53.208Z,84.13
2017-07-03T04:21:19.338Z,84.03
2017-07-03T04:21:45.504Z,84.13
2017-07-03T04:22:11.653Z,84.13
2017-07-03T04:22:37.788Z,84.13
2017-07-03T04:23:03.953Z,84.13
2017-07-03T04:23:30.097Z,84.23
2017-07-03T04:23:56.258Z,84.03
2017-07-03T04:24:22.388Z,84.13
2017-07-03T04:24:48.598Z,83.8
2017-07-03T04:25:14.708Z,84.19
2017-07-03T04:25:40.810Z,84.38
2017-07-03T04:26:06.929Z,83.84
2017-07-03T04:26:33.045Z,84.13
2017-07-03T04:26:59.142Z,84.03
2017-07-03T04:27:25.315Z,84.23
2017-07-03T04:27:51.466Z,84.32
2017-07-03T04:28:17.568Z,84.23
2017-07-03T04:28:43.708Z,84.23
2017-07-03T04:29:09.891Z,84.13
2017-07-03T04:29:36.079Z,84.23
2017-07-03T04:30:02.190Z,84.23
2017-07-03T04:30:28.339Z,84.03
2017-07-03T04:30:54.472Z,84.13
2017-07-03T04:31:20.620Z,84.13
2017-07-03T04:31:46.776Z,84.42
2017-07-03T04:32:12.890Z,84.13
2017-07-03T04:32:39.037Z,83.94
2017-07-03T04:33:05.172Z,84.13
2017-07-03T04:33:31.282Z,84.61
2017-07-03T04:33:57.459Z,84.7
2017-07-03T04:34:23.622Z,84.42
2017-07-03T04:34:49.805Z,84.09
2017-07-03T04:35:15.922Z,84.8
2017-07-03T04:35:42.032Z,84.61
2017-07-03T04:36:08.188Z,84.56
2017-07-03T04:36:34.311Z,84.52
2017-07-03T04:37:00.410Z,84.52
2017-07-03T04:37:26.564Z,84.42
2017-07-03T04:37:52.731Z,84.7
2017-07-03T04:38:18.912Z,84.7
2017-07-03T04:38:45.066Z,84.61
2017-07-03T04:39:11.277Z,84.52
2017-07-03T04:39:37.434Z,84.42
2017-07-03T04:40:03.579Z,84.42
2017-07-03T04:40:29.692Z,84.52
2017-07-03T04:40:55.820Z,84.32
2017-07-03T04:41:21.937Z,84.42
2017-07-03T04:41:48.088Z,84.13
2017-07-03T04:42:14.195Z,84.61
2017-07-03T04:42:40.333Z,84.52
2017-07-03T04:43:06.437Z,84.52
2017-07-03T04:43:32.619Z,83.84
2017-07-03T04:43:58.773Z,84.42
2017-07-03T04:44:24.872Z,85.09
2017-07-03T04:44:50.985Z,84.32
2017-07-03T04:45:17.163Z,83.94
2017-07-03T04:45:43.262Z,83.31
2017-07-03T04:46:09.379Z,83.31
2017-07-03T04:46:35.529Z,83.06
2017-07-03T04:47:01.634Z,81.54
2017-07-03T04:47:27.793Z,80.62
2017-07-03T04:47:53.961Z,78.55
2017-07-03T04:48:20.123Z,77.02
2017-07-03T04:48:46.230Z,76.39
2017-07-03T04:49:12.387Z,74.79
2017-07-03T04:49:38.526Z,73.45
2017-07-03T04:50:04.733Z,72.53
2017-07-03T04:50:30.892Z,71.28
2017-07-03T04:50:57.027Z,70.17
2017-07-03T04:51:23.176Z,69.91
2017-07-03T04:51:49.289Z,68.89
2017-07-03T04:52:15.419Z,67.16
2017-07-03T04:52:41.632Z,66.04
2017-07-03T04:53:07.776Z,64.6
2017-07-03T04:53:33.889Z,64.05
2017-07-03T04:54:00.054Z,63.57
2017-07-03T04:54:26.222Z,62.61
2017-07-03T04:54:52.402Z,62.45
2017-07-03T04:55:18.510Z,61.49
2017-07-03T04:55:44.617Z,61.19
2017-07-03T04:56:10.736Z,60.62
2017-07-03T04:56:36.877Z,60.52
2017-07-03T04:57:03.009Z,60.72
2017-07-03T04:57:29.128Z,60.07
2017-07-03T04:57:55.275Z,59.75
2017-07-03T04:58:21.382Z,59.75
2017-07-03T04:58:47.528Z,59.85
2017-07-03T04:59:13.662Z,59.56
2017-07-03T04:59:39.817Z,59.37
2017-07-03T05:00:05.927Z,59.37
2017-07-03T05:00:32.058Z,59.47
2017-07-03T05:00:58.210Z,59.3
2017-07-03T05:01:24.389Z,59.01
2017-07-03T05:01:50.545Z,58.63
2017-07-03T05:02:16.721Z,58.63
2017-07-03T05:02:42.903Z,58.72
2017-07-03T05:03:09.008Z,57.95
2017-07-03T05:03:35.178Z,58.17
2017-07-03T05:04:01.358Z,57.24
2017-07-03T05:04:27.520Z,57.24
2017-07-03T05:04:53.640Z,55.99
2017-07-03T05:05:19.774Z,55.92
2017-07-03T05:05:45.918Z,55.92
2017-07-03T05:06:12.101Z,55.24
2017-07-03T05:06:38.228Z,55.54
2017-07-03T05:07:04.369Z,55.27
2017-07-03T05:07:30.487Z,55.08
2017-07-03T05:07:56.652Z,54.11
2017-07-03T05:08:22.873Z,53.83
2017-07-03T05:08:49.149Z,54.02
2017-07-03T05:09:15.258Z,53.08
2017-07-03T05:09:41.422Z,52.79
2017-07-03T05:10:07.637Z,53.05
2017-07-03T05:10:33.776Z,53.73
2017-07-03T05:10:59.879Z,53.92
2017-07-03T05:11:26.062Z,53.73
2017-07-03T05:11:52.180Z,54.02
2017-07-03T05:12:18.314Z,54.02
2017-07-03T05:12:44.457Z,53.92
2017-07-03T05:13:10.579Z,52.76
2017-07-03T05:13:36.679Z,53.05
2017-07-03T05:14:02.796Z,52.67
2017-07-03T05:14:28.950Z,53.17
2017-07-03T05:14:55.087Z,53.08
2017-07-03T05:15:21.197Z,53.08
2017-07-03T05:15:47.369Z,52.5
2017-07-03T05:16:13.516Z,53.08
2017-07-03T05:16:39.667Z,52.11
2017-07-03T05:17:05.769Z,52.4
2017-07-03T05:17:31.944Z,52.31
2017-07-03T05:17:58.100Z,52.47
2017-07-03T05:18:24.257Z,53.15
2017-07-03T05:18:50.421Z,53.41
2017-07-03T05:19:16.572Z,54.57
2017-07-03T05:19:42.746Z,54.38
2017-07-03T05:20:08.876Z,54.57
2017-07-03T05:20:35.029Z,54.93
2017-07-03T05:21:01.140Z,55.41
2017-07-03T05:21:27.287Z,55.79
2017-07-03T05:21:53.471Z,56.35
2017-07-03T05:22:19.584Z,56.44
2017-07-03T05:22:45.733Z,56.73
2017-07-03T05:23:11.874Z,57.28
2017-07-03T05:23:38.031Z,58.31
2017-07-03T05:24:04.190Z,58.79
2017-07-03T05:24:30.386Z,58.98
2017-07-03T05:24:56.517Z,59.72
2017-07-03T05:25:22.696Z,60.21
2017-07-03T05:25:48.845Z,61.36
2017-07-03T05:26:14.978Z,61.23
2017-07-03T05:26:41.094Z,62.38
2017-07-03T05:27:07.227Z,62.96
2017-07-03T05:27:33.384Z,62.48
2017-07-03T05:27:59.497Z,63.25
2017-07-03T05:28:25.604Z,62.96
2017-07-03T05:28:51.781Z,62.87
2017-07-03T05:29:17.953Z,63.02
2017-07-03T05:29:44.117Z,62.84
2017-07-03T05:30:10.291Z,64.09
2017-07-03T05:30:36.467Z,63.99
2017-07-03T05:31:02.595Z,64.53
2017-07-03T05:31:28.710Z,65.11
2017-07-03T05:31:54.832Z,65.78
2017-07-03T05:32:20.960Z,65.97
2017-07-03T05:32:47.105Z,66.61
2017-07-03T05:33:13.214Z,67.09
2017-07-03T05:33:39.420Z,67.29
2017-07-03T05:34:05.600Z,67.09
2017-07-03T05:34:31.784Z,67
2017-07-03T05:34:57.980Z,67.96
2017-07-03T05:35:24.134Z,67.76
2017-07-03T05:35:50.237Z,67.47
2017-07-03T05:36:16.377Z,67.47
2017-07-03T05:36:42.526Z,67.47
2017-07-03T05:37:08.663Z,68.05
2017-07-03T05:37:34.799Z,68.15